createdAt,value
2022-12-11T01:40:24.167Z,15.10
2022-12-11T01:43:11.436Z,15.30
2022-12-11T01:45:44.856Z,14.90
2022-12-11T01:48:42.317Z,16.08
2022-12-11T01:51:10.507Z,14.57
2022-12-11T01:53:40.985Z,15.15
2022-12-11T01:56:08.982Z,16.33
2022-12-11T01:58:42.862Z,15.10
2022-12-11T02:01:12.819Z,16.90
2022-12-11T02:03:40.581Z,15.50
2022-12-11T02:06:38.917Z,16.10
2022-12-11T02:09:09.799Z,16.10
2022-12-11T02:12:02.498Z,16.02
2022-12-11T02:14:42.629Z,15.05
2022-12-11T02:17:42.920Z,16.60
2022-12-11T02:20:24.419Z,14.48
2022-12-11T02:23:13.655Z,15.10
2022-12-11T02:25:44.288Z,15.20
2022-12-11T02:28:19.251Z,15.30
2022-12-11T02:30:50.685Z,14.57
2022-12-11T02:33:20.871Z,14.82
2022-12-11T02:35:49.220Z,16.25
2022-12-11T02:38:29.093Z,14.18
2022-12-11T02:40:56.905Z,16.38
2022-12-11T02:43:24.977Z,14.77
2022-12-11T02:45:52.817Z,15.30
2022-12-11T02:48:21.114Z,15.63
2022-12-11T02:50:50.380Z,16.40
2022-12-11T02:53:21.913Z,16.35
2022-12-11T02:55:51.395Z,15.43
2022-12-11T02:58:24.095Z,15.80
2022-12-11T03:00:52.549Z,15.57
2022-12-11T03:03:20.439Z,15.65
2022-12-11T03:05:48.391Z,15.07
2022-12-11T03:08:17.766Z,15.23
2022-12-11T03:10:46.145Z,16.05
2022-12-11T03:13:14.411Z,15.98
2022-12-11T03:16:01.524Z,15.77
2022-12-11T03:18:50.076Z,15.05
2022-12-11T03:21:35.774Z,15.60
2022-12-11T03:24:04.549Z,16.10
2022-12-11T03:26:40.746Z,16.55
2022-12-11T03:29:35.112Z,17.65
2022-12-11T03:32:20.095Z,20.95
2022-12-11T03:35:01.154Z,23.58
2022-12-11T03:37:31.757Z,24.45
2022-12-11T03:40:01.927Z,25.65
2022-12-11T03:42:33.735Z,25.60
2022-12-11T03:45:01.623Z,26.13
2022-12-11T03:47:35.973Z,24.77
2022-12-11T03:50:04.762Z,24.35
2022-12-11T03:52:33.405Z,25.10
2022-12-11T03:55:01.809Z,24.88
2022-12-11T03:57:31.714Z,25.73
2022-12-11T03:59:59.788Z,24.17
2022-12-11T04:02:27.573Z,24.33
2022-12-11T04:04:55.440Z,20.90
2022-12-11T04:07:23.396Z,22.15
2022-12-11T04:09:51.973Z,19.48
2022-12-11T04:12:19.948Z,18.88
2022-12-11T04:15:02.808Z,19.02
2022-12-11T04:17:50.808Z,18.83
2022-12-11T04:20:37.312Z,19.20
2022-12-11T04:23:30.935Z,17.13
2022-12-11T04:26:16.414Z,18.63
2022-12-11T04:28:44.861Z,17.70
2022-12-11T04:31:22.692Z,18.80
2022-12-11T04:33:50.694Z,18.98
2022-12-11T04:36:18.619Z,19.27
2022-12-11T04:38:46.450Z,19.08
2022-12-11T04:41:14.949Z,19.70
2022-12-11T04:43:45.412Z,21.17
2022-12-11T04:46:18.949Z,19.10
2022-12-11T04:48:49.278Z,19.90
2022-12-11T04:51:20.518Z,18.30
2022-12-11T04:53:48.351Z,19.38
2022-12-11T04:56:17.060Z,20.35
2022-12-11T04:58:45.221Z,20.17
2022-12-11T05:01:15.356Z,21.05
2022-12-11T05:03:43.417Z,19.08
2022-12-11T05:06:11.344Z,19.08
2022-12-11T05:08:40.431Z,20.70
2022-12-11T05:11:10.259Z,19.15
2022-12-11T05:13:39.495Z,18.17
2022-12-11T05:16:08.508Z,20.58
2022-12-11T05:18:42.275Z,18.73
2022-12-11T05:21:17.390Z,18.30
2022-12-11T05:23:45.189Z,19.92
2022-12-11T05:26:17.159Z,18.52
2022-12-11T05:28:45.404Z,18.83
2022-12-11T05:31:17.675Z,18.98
2022-12-11T05:33:49.006Z,17.92
2022-12-11T05:36:19.251Z,18.85
2022-12-11T05:38:48.056Z,18.85
2022-12-11T05:41:17.822Z,19.75
2022-12-11T05:43:45.985Z,20.55
2022-12-11T05:46:15.699Z,19.83
2022-12-11T05:48:46.198Z,19.27
2022-12-11T05:51:14.876Z,17.92
2022-12-11T05:53:43.342Z,19.55
2022-12-11T05:56:20.345Z,19.98
2022-12-11T05:58:49.610Z,19.83
2022-12-11T06:01:21.228Z,18.63
2022-12-11T06:03:51.513Z,17.23
2022-12-11T06:06:19.642Z,18.20
2022-12-11T06:08:50.621Z,18.50
2022-12-11T06:11:23.953Z,18.25
2022-12-11T06:13:58.542Z,17.52
2022-12-11T06:16:27.055Z,17.92
2022-12-11T06:18:58.234Z,19.63
2022-12-11T06:21:28.436Z,19.40
2022-12-11T06:23:57.452Z,18.30
2022-12-11T06:26:28.182Z,18.70
2022-12-11T06:28:56.498Z,18.00
2022-12-11T06:31:26.754Z,19.38
2022-12-11T06:33:55.654Z,19.30
2022-12-11T06:36:24.575Z,17.80
2022-12-11T06:38:56.821Z,19.10
2022-12-11T06:41:25.126Z,18.13
2022-12-11T06:43:53.128Z,19.00
2022-12-11T06:46:23.618Z,18.42
2022-12-11T06:48:52.306Z,18.55
2022-12-11T06:51:22.236Z,20.25
2022-12-11T06:53:59.414Z,19.65
2022-12-11T06:56:27.266Z,19.80
2022-12-11T06:59:00.644Z,18.30
2022-12-11T07:01:32.522Z,21.08
2022-12-11T07:04:00.912Z,20.90
2022-12-11T07:06:29.086Z,20.40
2022-12-11T07:08:57.324Z,20.15
2022-12-11T07:11:25.149Z,20.73
2022-12-11T07:13:53.742Z,19.17
2022-12-11T07:16:22.272Z,19.55
2022-12-11T07:18:51.485Z,19.30
2022-12-11T07:21:20.585Z,18.13
2022-12-11T07:23:49.597Z,18.27
2022-12-11T07:26:19.130Z,17.90
2022-12-11T07:28:48.078Z,18.75
2022-12-11T07:31:24.187Z,18.20
2022-12-11T07:33:55.844Z,18.85
2022-12-11T07:36:25.025Z,16.85
2022-12-11T07:38:53.362Z,17.85
2022-12-11T07:41:25.361Z,14.70
2022-12-11T07:43:59.684Z,18.40
2022-12-11T07:46:30.752Z,17.02
2022-12-11T07:49:03.425Z,16.30
2022-12-11T07:51:55.262Z,15.95
2022-12-11T07:54:26.227Z,17.67
2022-12-11T07:56:55.396Z,17.02
2022-12-11T07:59:28.247Z,17.33
2022-12-11T08:01:59.379Z,17.00
2022-12-11T08:04:29.775Z,17.15
2022-12-11T08:06:59.572Z,16.77
2022-12-11T08:09:31.571Z,15.50
2022-12-11T08:12:00.772Z,15.88
2022-12-11T08:14:32.169Z,16.08
2022-12-11T08:17:02.764Z,18.25
2022-12-11T08:19:31.350Z,15.32
2022-12-11T08:21:59.151Z,14.43
2022-12-11T08:24:27.826Z,15.50
2022-12-11T08:26:55.875Z,15.32
2022-12-11T08:29:24.013Z,15.10
2022-12-11T08:31:55.223Z,14.88
2022-12-11T08:34:23.000Z,14.48
2022-12-11T08:36:55.765Z,14.88
2022-12-11T08:39:23.774Z,14.95
2022-12-11T08:41:52.449Z,14.50
2022-12-11T08:44:20.189Z,14.82
2022-12-11T08:46:48.589Z,12.77
2022-12-11T08:49:18.440Z,12.48
2022-12-11T08:51:47.308Z,14.10
2022-12-11T08:54:15.181Z,13.43
2022-12-11T08:56:43.087Z,12.82
2022-12-11T08:59:14.401Z,13.65
2022-12-11T09:01:43.376Z,13.00
2022-12-11T09:04:14.407Z,12.57
2022-12-11T09:06:42.500Z,12.38
2022-12-11T09:09:20.601Z,13.52
2022-12-11T09:11:50.582Z,12.85
2022-12-11T09:14:18.508Z,13.63
2022-12-11T09:16:55.470Z,13.75
2022-12-11T09:19:27.843Z,14.40
2022-12-11T09:22:04.914Z,14.50
2022-12-11T09:24:37.990Z,14.38
2022-12-11T09:27:09.723Z,13.70
2022-12-11T09:29:38.902Z,14.10
2022-12-11T09:32:48.138Z,13.73
2022-12-11T09:35:17.855Z,13.27
2022-12-11T09:37:52.090Z,14.05
2022-12-11T09:40:20.429Z,14.27
2022-12-11T09:42:54.861Z,13.63
2022-12-11T09:45:23.469Z,13.32
2022-12-11T09:47:52.942Z,14.45
2022-12-11T09:50:25.301Z,14.23
2022-12-11T09:53:08.989Z,13.32
2022-12-11T09:55:51.462Z,13.02
2022-12-11T09:59:01.701Z,13.73
2022-12-11T10:01:50.858Z,14.55
2022-12-11T10:04:52.562Z,13.32
2022-12-11T10:07:32.547Z,12.90
2022-12-11T10:10:13.699Z,12.77
2022-12-11T10:12:53.973Z,11.07
2022-12-11T10:15:43.226Z,13.13
2022-12-11T10:18:18.891Z,12.82
2022-12-11T10:23:27.477Z,13.43
2022-12-11T10:26:11.396Z,12.98
2022-12-11T10:28:40.660Z,13.60
2022-12-11T10:31:39.107Z,14.35
2022-12-11T10:34:15.491Z,15.07
2022-12-11T10:36:43.412Z,14.63
2022-12-11T10:39:17.016Z,16.38
2022-12-11T10:41:52.508Z,14.60
2022-12-11T10:44:30.924Z,14.77
2022-12-11T10:47:14.000Z,12.75
2022-12-11T10:50:04.564Z,13.32
2022-12-11T10:52:45.088Z,11.93
2022-12-11T10:55:21.785Z,13.32
2022-12-11T10:58:01.874Z,13.85
2022-12-11T11:00:33.230Z,12.55
2022-12-11T11:03:28.502Z,12.65
2022-12-11T11:06:15.078Z,12.77
2022-12-11T11:09:04.964Z,13.00
2022-12-11T11:11:38.334Z,12.25
2022-12-11T11:14:19.191Z,12.27
2022-12-11T11:17:14.254Z,12.98
2022-12-11T11:19:43.482Z,12.73
2022-12-11T11:22:17.857Z,12.00
2022-12-11T11:24:59.572Z,11.93
2022-12-11T11:27:30.528Z,11.52
2022-12-11T11:30:00.944Z,11.85
2022-12-11T11:32:40.641Z,12.82
2022-12-11T11:35:13.908Z,13.07
2022-12-11T11:37:58.797Z,11.65
2022-12-11T11:40:48.005Z,11.68
2022-12-11T11:43:59.553Z,11.55
2022-12-11T11:47:02.122Z,10.45
2022-12-11T11:49:56.185Z,9.73
2022-12-11T11:52:29.709Z,11.23
2022-12-11T11:55:02.391Z,10.57
2022-12-11T11:58:25.523Z,11.18
2022-12-11T12:02:09.174Z,9.63
2022-12-11T12:05:13.963Z,8.23
2022-12-11T12:08:02.776Z,11.20
2022-12-11T12:13:49.593Z,10.65
2022-12-11T12:16:55.637Z,10.73
2022-12-11T12:19:48.459Z,10.75
2022-12-11T12:22:24.949Z,10.05
2022-12-11T12:25:02.927Z,10.20
2022-12-11T12:28:05.400Z,10.52
2022-12-11T12:31:04.720Z,11.27
2022-12-11T12:33:41.948Z,10.13
2022-12-11T12:36:32.932Z,10.75
2022-12-11T12:39:14.248Z,11.50
2022-12-11T12:41:44.942Z,10.05
2022-12-11T12:44:14.175Z,10.35
2022-12-11T12:47:17.865Z,10.30
2022-12-11T12:49:48.123Z,11.07
2022-12-11T12:52:26.012Z,10.70
2022-12-11T12:55:16.163Z,10.45
2022-12-11T12:58:01.229Z,12.18
2022-12-11T13:00:44.203Z,11.68
2022-12-11T13:03:37.013Z,12.27
2022-12-11T13:06:30.756Z,10.75
2022-12-11T13:09:13.159Z,9.93
2022-12-11T13:11:43.376Z,10.75
2022-12-11T13:14:20.931Z,10.20
2022-12-11T13:19:49.411Z,9.90
2022-12-11T13:22:25.055Z,10.77
2022-12-11T13:24:56.506Z,10.55
2022-12-11T13:27:40.912Z,10.98
2022-12-11T13:30:15.700Z,10.50
2022-12-11T13:33:05.107Z,11.35
2022-12-11T13:36:21.341Z,10.23
2022-12-11T13:39:11.086Z,10.45
2022-12-11T13:41:38.901Z,10.57
2022-12-11T13:44:09.619Z,10.27
2022-12-11T13:46:37.818Z,9.75
2022-12-11T13:49:07.979Z,10.30
2022-12-11T13:51:38.928Z,9.02
2022-12-11T13:54:17.403Z,9.27
2022-12-11T13:57:03.935Z,9.95
2022-12-11T14:00:01.754Z,9.38
2022-12-11T14:02:55.065Z,11.38
2022-12-11T14:05:22.931Z,10.15
2022-12-11T14:07:56.521Z,9.98
2022-12-11T14:10:52.977Z,9.27
2022-12-11T14:13:28.254Z,10.20
2022-12-11T14:16:36.935Z,9.73
2022-12-11T14:19:09.507Z,10.57
2022-12-11T14:21:44.264Z,9.57
2022-12-11T14:24:14.765Z,10.07
2022-12-11T14:26:49.533Z,11.20
2022-12-11T14:29:29.789Z,10.15
2022-12-11T14:32:04.640Z,9.55
2022-12-11T14:34:37.046Z,10.05
2022-12-11T14:37:06.501Z,10.30
2022-12-11T14:39:59.960Z,10.23
2022-12-11T14:42:33.182Z,10.00
2022-12-11T14:45:21.113Z,9.93
2022-12-11T14:47:52.301Z,10.82
2022-12-11T14:50:37.170Z,10.45
2022-12-11T14:53:13.614Z,11.23
2022-12-11T14:55:41.617Z,9.90
2022-12-11T14:58:16.719Z,10.65
2022-12-11T15:01:06.549Z,10.80
2022-12-11T15:03:36.354Z,9.82
2022-12-11T15:06:31.170Z,9.50
2022-12-11T15:09:20.086Z,9.63
2022-12-11T15:11:52.482Z,9.98
2022-12-11T15:14:21.236Z,10.15
2022-12-11T15:16:52.503Z,9.77
2022-12-11T15:19:24.366Z,8.98
2022-12-11T15:21:52.785Z,10.07
2022-12-11T15:24:43.395Z,10.55
2022-12-11T15:27:53.741Z,11.05
2022-12-11T15:30:33.365Z,9.38
2022-12-11T15:33:42.447Z,8.68
2022-12-11T15:36:36.978Z,9.30
2022-12-11T15:39:09.545Z,8.93
2022-12-11T15:41:41.448Z,9.85
2022-12-11T15:44:14.135Z,10.68
2022-12-11T15:46:43.828Z,9.80
2022-12-11T15:49:15.388Z,10.27
2022-12-11T15:51:44.891Z,10.55
2022-12-11T15:54:13.267Z,10.98
2022-12-11T15:56:42.905Z,9.45
2022-12-11T15:59:10.700Z,11.65
2022-12-11T16:01:41.256Z,10.02
2022-12-11T16:04:09.857Z,10.00
2022-12-11T16:06:45.465Z,11.77
2022-12-11T16:09:16.623Z,10.73
2022-12-11T16:11:45.870Z,11.65
2022-12-11T16:14:15.147Z,12.65
2022-12-11T16:16:43.627Z,13.05
2022-12-11T16:19:12.029Z,11.52
2022-12-11T16:21:40.381Z,13.73
2022-12-11T16:24:08.710Z,13.45
2022-12-11T16:26:37.799Z,13.43
2022-12-11T16:29:07.293Z,13.00
2022-12-11T16:31:35.401Z,14.43
2022-12-11T16:34:03.346Z,14.65
2022-12-11T16:36:31.235Z,15.63
2022-12-11T16:38:59.334Z,12.40
2022-12-11T16:41:29.457Z,13.82
2022-12-11T16:43:57.839Z,14.40
2022-12-11T16:46:25.719Z,14.40
2022-12-11T16:48:58.546Z,13.30
2022-12-11T16:51:29.736Z,13.30
2022-12-11T16:53:58.347Z,15.93
2022-12-11T16:56:27.493Z,15.57
2022-12-11T16:58:55.397Z,14.02
2022-12-11T17:01:26.683Z,14.90
2022-12-11T17:03:54.626Z,14.82
2022-12-11T17:06:23.580Z,15.68
2022-12-11T17:08:51.614Z,15.85
2022-12-11T17:11:22.912Z,15.15
2022-12-11T17:14:01.100Z,14.65
2022-12-11T17:16:31.694Z,14.73
2022-12-11T17:19:03.579Z,13.48
2022-12-11T17:21:32.315Z,15.20
2022-12-11T17:24:00.502Z,15.07
2022-12-11T17:26:29.283Z,14.80
2022-12-11T17:28:59.761Z,14.25
2022-12-11T17:31:28.935Z,14.73
2022-12-11T17:34:01.527Z,15.60
2022-12-11T17:36:29.611Z,13.15
2022-12-11T17:38:58.250Z,12.82
2022-12-11T17:41:26.549Z,13.48
2022-12-11T17:43:54.616Z,13.25
2022-12-11T17:46:24.484Z,12.23
2022-12-11T17:48:52.541Z,12.85
2022-12-11T17:51:26.507Z,12.95
2022-12-11T17:53:55.765Z,13.18
2022-12-11T17:56:25.791Z,14.05
2022-12-11T17:58:54.714Z,12.82
2022-12-11T18:01:22.926Z,13.30
2022-12-11T18:03:53.226Z,12.95
2022-12-11T18:06:23.161Z,14.48
2022-12-11T18:08:51.605Z,13.45
2022-12-11T18:11:23.203Z,13.07
2022-12-11T18:13:54.267Z,13.07
2022-12-11T18:16:27.750Z,12.18
2022-12-11T18:18:56.663Z,11.75
2022-12-11T18:21:30.639Z,11.70
2022-12-11T18:24:01.776Z,12.55
2022-12-11T18:26:30.171Z,12.85
2022-12-11T18:29:00.350Z,12.18
2022-12-11T18:31:49.251Z,12.60
2022-12-11T18:34:24.069Z,11.95
2022-12-11T18:36:53.381Z,11.23
2022-12-11T18:39:23.499Z,11.52
2022-12-11T18:42:23.892Z,12.50
2022-12-11T18:44:39.653Z,11.10
2022-12-11T18:47:08.035Z,10.57
2022-12-11T18:49:38.393Z,11.20
2022-12-11T18:52:06.451Z,10.18
2022-12-11T18:54:34.424Z,10.35
2022-12-11T18:57:03.638Z,11.32
2022-12-11T18:59:31.584Z,13.30
2022-12-11T19:01:59.440Z,12.27
2022-12-11T19:04:28.337Z,11.73
2022-12-11T19:07:02.618Z,12.77
2022-12-11T19:09:35.334Z,13.43
2022-12-11T19:12:12.242Z,11.83
2022-12-11T19:14:41.620Z,12.00
2022-12-11T19:17:09.496Z,11.88
2022-12-11T19:19:38.759Z,11.38
2022-12-11T19:22:06.541Z,12.15
2022-12-11T19:24:35.013Z,12.02
2022-12-11T19:27:10.098Z,13.00
2022-12-11T19:29:41.436Z,11.48
2022-12-11T19:32:09.775Z,11.35
2022-12-11T19:34:41.190Z,11.77
2022-12-11T19:37:10.014Z,12.38
2022-12-11T19:39:41.505Z,13.10
2022-12-11T19:42:09.925Z,12.38
2022-12-11T19:44:38.497Z,13.15
2022-12-11T19:47:06.496Z,11.95
2022-12-11T19:49:39.657Z,12.85
2022-12-11T19:52:08.621Z,11.80
2022-12-11T19:54:40.550Z,13.15
2022-12-11T19:57:12.638Z,12.57
2022-12-11T19:59:55.412Z,13.18
2022-12-11T20:02:27.191Z,12.75
2022-12-11T20:05:02.592Z,12.45
2022-12-11T20:07:41.479Z,12.02
2022-12-11T20:10:14.033Z,12.85
2022-12-11T20:12:43.423Z,13.43
2022-12-11T20:15:11.820Z,13.82
2022-12-11T20:17:44.937Z,14.85
2022-12-11T20:20:33.315Z,13.13
2022-12-11T20:23:03.836Z,13.27
2022-12-11T20:25:33.304Z,13.82
2022-12-11T20:28:03.682Z,12.93
2022-12-11T20:30:34.706Z,14.20
2022-12-11T20:33:03.135Z,13.30
2022-12-11T20:35:33.146Z,13.82
2022-12-11T20:38:02.959Z,14.25
2022-12-11T20:40:33.580Z,13.95
2022-12-11T20:43:01.413Z,13.23
2022-12-11T20:45:29.780Z,14.32
2022-12-11T20:47:59.065Z,14.48
2022-12-11T20:50:47.632Z,14.02
2022-12-11T20:53:15.470Z,13.73
2022-12-11T20:55:43.905Z,15.45
2022-12-11T20:58:12.432Z,15.60
2022-12-11T21:00:40.840Z,14.13
2022-12-11T21:03:35.384Z,15.20
2022-12-11T21:06:34.383Z,15.63
2022-12-11T21:09:05.294Z,15.30
2022-12-11T21:11:39.212Z,15.07
2022-12-11T21:17:11.039Z,14.10
2022-12-11T21:19:39.755Z,13.63
2022-12-11T21:22:14.551Z,15.32
2022-12-11T21:24:43.497Z,13.23
2022-12-11T21:27:11.321Z,14.65
2022-12-11T21:29:42.973Z,12.77
2022-12-11T21:32:15.124Z,12.48
2022-12-11T21:34:48.574Z,13.23
2022-12-11T21:37:18.741Z,13.52
2022-12-11T21:39:51.388Z,13.93
2022-12-11T21:42:26.333Z,12.98
2022-12-11T21:47:45.260Z,14.40
2022-12-11T21:50:13.685Z,11.55
2022-12-11T21:52:42.738Z,11.65
2022-12-11T21:55:13.190Z,12.68
2022-12-11T21:57:47.659Z,12.40
2022-12-11T22:00:16.711Z,12.18
2022-12-11T22:02:53.211Z,13.38
2022-12-11T22:05:22.918Z,11.73
2022-12-11T22:07:53.271Z,12.10
2022-12-11T22:10:22.533Z,11.05
2022-12-11T22:13:01.574Z,11.68
2022-12-11T22:15:33.072Z,11.40
2022-12-11T22:18:02.541Z,12.90
2022-12-11T22:20:34.234Z,12.48
2022-12-11T22:23:26.802Z,11.45
2022-12-11T22:26:24.792Z,10.10
2022-12-11T22:29:20.871Z,10.48
2022-12-11T22:32:15.638Z,11.43
2022-12-11T22:34:47.226Z,11.88
2022-12-11T22:37:35.804Z,11.18
2022-12-11T22:40:06.010Z,10.80
2022-12-11T22:42:36.168Z,11.18
2022-12-11T22:45:12.659Z,11.32
2022-12-11T22:47:45.106Z,10.32
2022-12-11T22:50:20.623Z,10.63
2022-12-11T22:52:54.068Z,9.65
2022-12-11T22:55:30.313Z,10.25
2022-12-11T22:57:58.226Z,9.85
2022-12-11T23:00:26.227Z,10.40
2022-12-11T23:02:54.080Z,9.32
2022-12-11T23:05:22.955Z,10.95
2022-12-11T23:07:51.065Z,10.68
2022-12-11T23:10:18.985Z,9.38
2022-12-11T23:12:48.786Z,9.77
2022-12-11T23:15:16.628Z,10.77
2022-12-11T23:17:44.550Z,9.15
2022-12-11T23:20:12.550Z,9.65
2022-12-11T23:22:40.611Z,9.95
2022-12-11T23:25:09.026Z,10.70
2022-12-11T23:27:37.663Z,10.00
2022-12-11T23:30:08.944Z,9.88
2022-12-11T23:32:36.819Z,11.05
2022-12-11T23:35:05.551Z,9.73
2022-12-11T23:37:33.661Z,8.60
2022-12-11T23:40:01.481Z,10.13
2022-12-11T23:42:29.495Z,8.80
2022-12-11T23:44:57.854Z,9.52
2022-12-11T23:47:25.905Z,9.55
2022-12-11T23:49:54.349Z,10.07
2022-12-11T23:52:23.205Z,9.70
2022-12-11T23:54:55.402Z,8.25
2022-12-11T23:57:24.013Z,9.63
2022-12-11T23:59:51.999Z,9.27
